Ryuoh Maru No.2 — JM5900 — position and weather

sailwx.info

Track history (hours):
 
Tides and Currents Weather Stations Pressure Air Temp Water Temp Dewpoint Dewpoint Depression Visibility Wind Speed Wind Dir Waves Ship Positions

Ryuoh Maru No.2

Last reported at 2015-Nov-30 13:30 UTC. Time now 2016-Feb-12 16:09 UTC.
Position N 36°10' E 140°59'.
Warning: this ship's position is months out of date.

Length 80 m; draft 4.9 m.

Type: Cargo ship. MMSI: 431401218.

Date/timePositionNaut miles runAvg speedWind from/ knotsBaromVisibWave heightAir tempDewpointWater temp
2015-Nov-30 13:30N 36°10' E 140°59'3010.0
2015-Nov-30 10:30N 35°40' E 140°54'9 9.6
2015-Nov-30 09:31N 35°33' E 140°47'10 9.6
2015-Nov-30 08:32N 35°25' E 140°40'11 9.7
2015-Nov-30 07:24N 35°16' E 140°32'2010.0
2015-Nov-30 05:23N 35°02' E 140°14'910.7
2015-Nov-30 04:33N 34°57' E 140°05'17 8.3
2015-Nov-30 02:33N 34°55' E 139°45'1010.0
2015-Nov-30 01:34N 35°05' E 139°45'1110.6
2015-Nov-30 00:33N 35°16' E 139°46'9 9.4
2015-Nov-29 23:33N 35°25' E 139°44'6 6.1
2015-Nov-29 22:34N 35°22' E 139°51'0 0.0
2015-Nov-29 21:33N 35°22' E 139°51'0 0.0
2015-Nov-29 20:33N 35°22' E 139°51'0 0.0
2015-Nov-29 19:34N 35°22' E 139°51'0 0.0
2015-Nov-29 18:33N 35°22' E 139°51'0 0.0
2015-Nov-29 17:33N 35°22' E 139°51'0 0.0
2015-Nov-29 16:33N 35°22' E 139°51'0 0.0
2015-Nov-29 15:33N 35°22' E 139°51'0 0.0
2015-Nov-29 14:33N 35°22' E 139°51'0 0.0
2015-Nov-29 13:33N 35°22' E 139°51'0 0.0
2015-Nov-29 12:33N 35°22' E 139°51'0 0.0
2015-Nov-29 11:33N 35°22' E 139°51'0 0.0
2015-Nov-29 10:33N 35°22' E 139°51'0 0.0
2015-Nov-29 09:33N 35°22' E 139°51'0 0.0
2015-Nov-29 08:33N 35°22' E 139°51'1 1.3
2015-Nov-29 07:33N 35°22' E 139°49'0 0.1
2015-Nov-29 06:32N 35°22' E 139°49'0 0.0
2015-Nov-29 05:32N 35°22' E 139°49'0 0.0
2015-Nov-29 04:32N 35°22' E 139°49'0 0.0
2015-Nov-29 03:29N 35°22' E 139°49'0 0.0
2015-Nov-29 02:32N 35°22' E 139°49'0 0.0
2015-Nov-29 01:32N 35°22' E 139°49'3 3.1
2015-Nov-29 00:33N 35°23' E 139°45'1 0.6
2015-Nov-28 23:33N 35°23' E 139°45'0 0.0
2015-Nov-28 22:33N 35°23' E 139°45'0 0.0
2015-Nov-28 21:33N 35°23' E 139°45'0 0.0
2015-Nov-28 20:33N 35°23' E 139°45'0 0.0
2015-Nov-28 19:33N 35°23' E 139°45'0 0.0
2015-Nov-28 18:33N 35°23' E 139°45'0 0.0
2015-Nov-28 17:33N 35°23' E 139°45'0 0.0
2015-Nov-28 16:33N 35°23' E 139°45'0 0.0
2015-Nov-28 15:33N 35°23' E 139°45'0 0.0
2015-Nov-28 14:33N 35°23' E 139°45'0 0.0
2015-Nov-28 13:33N 35°23' E 139°45'0 0.0
2015-Nov-28 12:33N 35°23' E 139°45'0 0.0
2015-Nov-28 11:33N 35°23' E 139°45'0 0.0
2015-Nov-28 10:30N 35°23' E 139°45'0 0.0
2015-Nov-28 09:33N 35°23' E 139°45'0 0.1
2015-Nov-28 08:33N 35°23' E 139°45'9 9.2
2015-Nov-28 07:33N 35°14' E 139°47'1110.6
2015-Nov-28 06:33N 35°03' E 139°45'19 6.4
2015-Nov-28 03:33N 34°58' E 140°07'26 8.4
2015-Nov-28 00:30N 35°15' E 140°31'10 9.9
2015-Nov-27 23:31N 35°22' E 140°38'1010.0
2015-Nov-27 22:33N 35°30' E 140°45'1210.5
2015-Nov-27 21:23N 35°40' E 140°54'810.1
2015-Nov-27 20:33N 35°48' E 140°55'1010.5
2015-Nov-27 19:33N 35°58' E 140°52'1110.6
2015-Nov-27 18:33N 36°09' E 140°50'  
Track history (hours):
 
Tides and Currents Weather Stations Pressure Air Temp Water Temp Dewpoint Dewpoint Depression Visibility Wind Speed Wind Dir Waves Ship Positions

Ryuoh Maru No.2

Last reported at 2015-Nov-30 13:30 UTC. Time now 2016-Feb-12 16:09 UTC.
Position N 36°10' E 140°59'.
Warning: this ship's position is months out of date.

Length 80 m; draft 4.9 m.

Type: Cargo ship. MMSI: 431401218.

Date/timePositionNaut miles runAvg speedWind from/ knotsBaromVisibWave heightAir tempDewpointWater temp
2015-Nov-30 13:30N 36°10' E 140°59'3010.0
2015-Nov-30 10:30N 35°40' E 140°54'9 9.6
2015-Nov-30 09:31N 35°33' E 140°47'10 9.6
2015-Nov-30 08:32N 35°25' E 140°40'11 9.7
2015-Nov-30 07:24N 35°16' E 140°32'2010.0
2015-Nov-30 05:23N 35°02' E 140°14'910.7
2015-Nov-30 04:33N 34°57' E 140°05'17 8.3
2015-Nov-30 02:33N 34°55' E 139°45'1010.0
2015-Nov-30 01:34N 35°05' E 139°45'1110.6
2015-Nov-30 00:33N 35°16' E 139°46'9 9.4
2015-Nov-29 23:33N 35°25' E 139°44'6 6.1
2015-Nov-29 22:34N 35°22' E 139°51'0 0.0
2015-Nov-29 21:33N 35°22' E 139°51'0 0.0
2015-Nov-29 20:33N 35°22' E 139°51'0 0.0
2015-Nov-29 19:34N 35°22' E 139°51'0 0.0
2015-Nov-29 18:33N 35°22' E 139°51'0 0.0
2015-Nov-29 17:33N 35°22' E 139°51'0 0.0
2015-Nov-29 16:33N 35°22' E 139°51'0 0.0
2015-Nov-29 15:33N 35°22' E 139°51'0 0.0
2015-Nov-29 14:33N 35°22' E 139°51'0 0.0
2015-Nov-29 13:33N 35°22' E 139°51'0 0.0
2015-Nov-29 12:33N 35°22' E 139°51'0 0.0
2015-Nov-29 11:33N 35°22' E 139°51'0 0.0
2015-Nov-29 10:33N 35°22' E 139°51'0 0.0
2015-Nov-29 09:33N 35°22' E 139°51'0 0.0
2015-Nov-29 08:33N 35°22' E 139°51'1 1.3
2015-Nov-29 07:33N 35°22' E 139°49'0 0.1
2015-Nov-29 06:32N 35°22' E 139°49'0 0.0
2015-Nov-29 05:32N 35°22' E 139°49'0 0.0
2015-Nov-29 04:32N 35°22' E 139°49'0 0.0
2015-Nov-29 03:29N 35°22' E 139°49'0 0.0
2015-Nov-29 02:32N 35°22' E 139°49'0 0.0
2015-Nov-29 01:32N 35°22' E 139°49'3 3.1
2015-Nov-29 00:33N 35°23' E 139°45'1 0.6
2015-Nov-28 23:33N 35°23' E 139°45'0 0.0
2015-Nov-28 22:33N 35°23' E 139°45'0 0.0
2015-Nov-28 21:33N 35°23' E 139°45'0 0.0
2015-Nov-28 20:33N 35°23' E 139°45'0 0.0
2015-Nov-28 19:33N 35°23' E 139°45'0 0.0
2015-Nov-28 18:33N 35°23' E 139°45'0 0.0
2015-Nov-28 17:33N 35°23' E 139°45'0 0.0
2015-Nov-28 16:33N 35°23' E 139°45'0 0.0
2015-Nov-28 15:33N 35°23' E 139°45'0 0.0
2015-Nov-28 14:33N 35°23' E 139°45'0 0.0
2015-Nov-28 13:33N 35°23' E 139°45'0 0.0
2015-Nov-28 12:33N 35°23' E 139°45'0 0.0
2015-Nov-28 11:33N 35°23' E 139°45'0 0.0
2015-Nov-28 10:30N 35°23' E 139°45'0 0.0
2015-Nov-28 09:33N 35°23' E 139°45'0 0.1
2015-Nov-28 08:33N 35°23' E 139°45'9 9.2
2015-Nov-28 07:33N 35°14' E 139°47'1110.6
2015-Nov-28 06:33N 35°03' E 139°45'19 6.4
2015-Nov-28 03:33N 34°58' E 140°07'26 8.4
2015-Nov-28 00:30N 35°15' E 140°31'10 9.9
2015-Nov-27 23:31N 35°22' E 140°38'1010.0
2015-Nov-27 22:33N 35°30' E 140°45'1210.5
2015-Nov-27 21:23N 35°40' E 140°54'810.1
2015-Nov-27 20:33N 35°48' E 140°55'1010.5
2015-Nov-27 19:33N 35°58' E 140°52'1110.6
2015-Nov-27 18:33N 36°09' E 140°50'  

Dump ship's entire track history